»·PEaware :: N255EC KBZN-KPDX

N255EC :: KBZN-KPDX

FLIGHT INFORMATION

Flight Status: Arrived
Operator: Privately registered:
United States
More flights under this callsign
Pilot: Reinaldo C. (26424)
Aircraft: Unknown
(B60T)
More flights by this aircraft type
Origin: KBZN Gallatin
United States
Destination: KPDX Portland Intl
United States
More flights between these airports :: More routes between these airports
Route: +TEERX4 HIA J16 PDT BAYYR HHOOD4
File this flight plan on PilotEdge
Remarks:
Altitude:
(Current/Filed)
20,000ft
Speed:
(Current/Filed)
250kts
Departed: 06-Oct-20 11:03 AM
Arrived: 06-Oct-20 12:53 PM
Distance/Time
Traveled:
479nm/1:49
Distance/Time
To Go:
Arrived

Flight Plot

Page will automatically refresh every two minutes.

Flight plan parsing failed; only flown route is shown


Map Options




Map Legend


Flown Route
Filed Route
Departure Airport
Arrival Airport
Navaid (VOR, NDB)
Fix

Horizontal Profiles

Position Reports

Time Latitude Longitude Heading Altitude Ground
Speed
06-Oct-20 10:37 45.771083 -111.151810 135 4474ft 0kts
06-Oct-20 10:38 45.771083 -111.151810 135 4474ft 0kts
06-Oct-20 10:39 45.771083 -111.151810 135 4474ft 0kts
06-Oct-20 10:40 45.771083 -111.151810 135 4474ft 0kts
06-Oct-20 10:41 45.773290 -111.151534 316 4474ft 0kts
06-Oct-20 10:42 45.773173 -111.151678 316 4474ft 0kts
06-Oct-20 10:43 45.773174 -111.151678 316 4474ft 0kts
06-Oct-20 10:44 45.773174 -111.151679 316 4474ft 0kts
06-Oct-20 10:45 45.773174 -111.151679 316 4474ft 0kts
06-Oct-20 10:46 45.773174 -111.151679 316 4474ft 0kts
06-Oct-20 10:47 45.773174 -111.151679 316 4474ft 0kts
06-Oct-20 10:48 45.773174 -111.151679 316 4474ft 0kts
06-Oct-20 10:49 45.773174 -111.151679 316 4474ft 0kts
06-Oct-20 10:50 45.773174 -111.151679 316 4474ft 0kts
06-Oct-20 10:51 45.773174 -111.151679 316 4474ft 0kts
06-Oct-20 10:52 45.773174 -111.151679 316 4474ft 0kts
06-Oct-20 10:53 45.773174 -111.151679 316 4474ft 0kts
06-Oct-20 10:54 45.773174 -111.151679 316 4474ft 0kts
06-Oct-20 10:55 45.774318 -111.151416 315 4474ft 10kts
06-Oct-20 10:56 45.776600 -111.154588 317 4474ft 11kts
06-Oct-20 10:57 45.778908 -111.157808 315 4474ft 11kts
06-Oct-20 10:58 45.781215 -111.161027 317 4474ft 11kts
06-Oct-20 10:59 45.784026 -111.164949 317 4474ft 15kts
06-Oct-20 11:00 45.786984 -111.167916 48 4474ft 11kts
06-Oct-20 11:01 45.787209 -111.167569 46 4474ft 0kts
06-Oct-20 11:02 45.784368 -111.161314 136 4474ft 96kts
06-Oct-20 11:03 45.747426 -111.133952 199 6291ft 180kts
06-Oct-20 11:04 45.713619 -111.191189 225 8193ft 195kts
06-Oct-20 11:05 45.704674 -111.262226 278 10216ft 195kts
06-Oct-20 11:06 45.712636 -111.337997 278 12236ft 190kts
06-Oct-20 11:07 45.721020 -111.412760 279 14172ft 190kts
06-Oct-20 11:08 45.729521 -111.488255 279 15826ft 196kts
06-Oct-20 11:09 45.738385 -111.567383 279 17267ft 199kts
06-Oct-20 11:10 45.747195 -111.645103 282 18875ft 196kts
06-Oct-20 11:11 45.763359 -111.720784 287 20331ft 206kts
06-Oct-20 11:12 45.782098 -111.805558 287 20287ft 229kts
06-Oct-20 11:13 45.800998 -111.891368 287 20288ft 224kts
06-Oct-20 11:14 45.820297 -111.979351 287 20290ft 237kts
06-Oct-20 11:15 45.840103 -112.070031 287 20287ft 241kts
06-Oct-20 11:16 45.859726 -112.162244 282 20283ft 235kts
06-Oct-20 11:17 45.862206 -112.255196 272 20283ft 231kts
06-Oct-20 11:18 45.862604 -112.347010 272 20283ft 228kts
06-Oct-20 11:19 45.862927 -112.438031 272 20285ft 229kts
06-Oct-20 11:20 45.863197 -112.530977 271 20285ft 235kts
06-Oct-20 11:21 45.863378 -112.625769 271 20284ft 238kts
06-Oct-20 11:22 45.863490 -112.721446 271 20279ft 240kts
06-Oct-20 11:23 45.863509 -112.826095 271 20274ft 240kts
06-Oct-20 11:24 45.862783 -113.211755 270 20251ft 243kts
06-Oct-20 11:25 45.860766 -113.595251 270 20249ft 240kts
06-Oct-20 11:26 45.857432 -113.981222 270 20242ft 240kts
06-Oct-20 11:27 45.852831 -114.364980 269 20246ft 240kts
06-Oct-20 11:28 45.846895 -114.750693 269 20250ft 244kts
06-Oct-20 11:29 45.840262 -115.107019 268 20252ft 246kts
06-Oct-20 11:30 45.838227 -115.205175 268 20250ft 246kts
06-Oct-20 11:31 45.836124 -115.302880 268 20250ft 247kts
06-Oct-20 11:32 45.833914 -115.401938 268 20251ft 247kts
06-Oct-20 11:33 45.831629 -115.500397 268 20250ft 246kts
06-Oct-20 11:34 45.829261 -115.598743 268 20250ft 246kts
06-Oct-20 11:35 45.826815 -115.696859 267 20251ft 246kts
06-Oct-20 11:36 45.824281 -115.795100 267 20251ft 246kts
06-Oct-20 11:37 45.821668 -115.893128 267 20251ft 245kts
06-Oct-20 11:38 45.818972 -115.991084 267 20250ft 245kts
06-Oct-20 11:39 45.816196 -116.088948 267 20250ft 245kts
06-Oct-20 11:40 45.813341 -116.186583 267 20249ft 246kts
06-Oct-20 11:41 45.810375 -116.285159 267 20250ft 246kts
06-Oct-20 11:42 45.807335 -116.383344 267 20250ft 247kts
06-Oct-20 11:43 45.804208 -116.481858 267 20251ft 247kts
06-Oct-20 11:44 45.800978 -116.580586 266 20251ft 248kts
06-Oct-20 11:45 45.797639 -116.679942 266 20251ft 249kts
06-Oct-20 11:46 45.794223 -116.779294 266 20256ft 253kts
06-Oct-20 11:47 45.790648 -116.880422 266 20251ft 252kts
06-Oct-20 11:48 45.787010 -116.980936 266 20255ft 253kts
06-Oct-20 11:49 45.783285 -117.081465 266 20254ft 252kts
06-Oct-20 11:50 45.779457 -117.182204 265 20240ft 253kts
06-Oct-20 11:51 45.775536 -117.283078 265 20234ft 253kts
06-Oct-20 11:52 45.771538 -117.383646 265 20238ft 255kts
06-Oct-20 11:53 45.767396 -117.485580 265 20228ft 255kts
06-Oct-20 11:54 45.763178 -117.587072 265 20231ft 255kts
06-Oct-20 11:55 45.758845 -117.689153 265 20226ft 256kts
06-Oct-20 11:56 45.754442 -117.790900 265 20215ft 255kts
06-Oct-20 11:57 45.749960 -117.892201 265 20211ft 254kts
06-Oct-20 11:58 45.745407 -117.993145 265 20206ft 254kts
06-Oct-20 11:59 45.740768 -118.094078 265 20215ft 253kts
06-Oct-20 12:00 45.736042 -118.194859 265 20222ft 255kts
06-Oct-20 12:01 45.731193 -118.296427 264 20220ft 255kts
06-Oct-20 12:02 45.726260 -118.397787 264 20221ft 255kts
06-Oct-20 12:03 45.721225 -118.499383 264 20195ft 255kts
06-Oct-20 12:04 45.716110 -118.600747 264 20180ft 255kts
06-Oct-20 12:05 45.710884 -118.702477 264 20148ft 258kts
06-Oct-20 12:06 45.705523 -118.805136 264 20130ft 257kts
06-Oct-20 12:07 45.700085 -118.907382 264 20131ft 258kts
06-Oct-20 12:08 45.694298 -119.009694 263 20135ft 257kts
06-Oct-20 12:10 45.688278 -119.111473 263 20139ft 257kts
06-Oct-20 12:11 45.682158 -119.213652 263 20141ft 257kts
06-Oct-20 12:12 45.675973 -119.315433 263 20142ft 257kts
06-Oct-20 12:13 45.669686 -119.417416 263 20142ft 257kts
06-Oct-20 12:14 45.663321 -119.519153 263 20142ft 257kts
06-Oct-20 12:15 45.656861 -119.620941 263 20142ft 257kts
06-Oct-20 12:16 45.650306 -119.722777 263 20142ft 257kts
06-Oct-20 12:17 45.643652 -119.824723 263 20141ft 257kts
06-Oct-20 12:18 45.636917 -119.926456 262 20139ft 257kts
06-Oct-20 12:19 45.630084 -120.028297 262 20132ft 257kts
06-Oct-20 12:20 45.623155 -120.130179 262 20122ft 257kts
06-Oct-20 12:21 45.616155 -120.231765 262 20124ft 257kts
06-Oct-20 12:22 45.609036 -120.333734 262 20123ft 257kts
06-Oct-20 12:23 45.601840 -120.435488 262 20120ft 258kts
06-Oct-20 12:24 45.594555 -120.537178 262 20118ft 258kts
06-Oct-20 12:25 45.587127 -120.639575 262 20115ft 258kts
06-Oct-20 12:26 45.579614 -120.741821 262 20117ft 261kts
06-Oct-20 12:27 45.571911 -120.845404 262 20112ft 262kts
06-Oct-20 12:28 45.564113 -120.948989 262 20103ft 260kts
06-Oct-20 12:29 45.556293 -121.051516 262 20106ft 262kts
06-Oct-20 12:29 45.549651 -121.137726 262 20099ft 261kts
06-Oct-20 12:31 45.540321 -121.257335 262 20100ft 258kts
06-Oct-20 12:31 45.533653 -121.341818 261 20088ft 257kts
06-Oct-20 12:32 45.528875 -121.442565 268 19063ft 256kts
06-Oct-20 12:34 45.529221 -121.558263 267 17776ft 241kts
06-Oct-20 12:34 45.529365 -121.637430 267 16853ft 239kts
06-Oct-20 12:35 45.529676 -121.733831 270 15363ft 243kts
06-Oct-20 12:36 45.533518 -121.828976 271 13879ft 235kts
06-Oct-20 12:37 45.536863 -121.921032 271 12773ft 233kts
06-Oct-20 12:38 45.549656 -122.011047 284 11681ft 231kts
06-Oct-20 12:39 45.567295 -122.096710 286 10608ft 230kts
06-Oct-20 12:40 45.585271 -122.183224 286 9811ft 226kts
06-Oct-20 12:41 45.603172 -122.269627 287 9025ft 226kts
06-Oct-20 12:42 45.620859 -122.355370 287 8229ft 218kts
06-Oct-20 12:43 45.637722 -122.437447 287 7355ft 211kts
06-Oct-20 12:44 45.655143 -122.517601 288 6341ft 207kts
06-Oct-20 12:45 45.671937 -122.595604 289 5340ft 201kts
06-Oct-20 12:46 45.691156 -122.669833 293 3860ft 191kts
06-Oct-20 12:47 45.667583 -122.723540 205 2410ft 172kts
06-Oct-20 12:48 45.637074 -122.712412 102 1826ft 125kts
06-Oct-20 12:49 45.620527 -122.662566 118 1120ft 133kts
06-Oct-20 12:50 45.603796 -122.618646 119 407ft 124kts
06-Oct-20 12:51 45.589233 -122.581297 119 21ft 67kts
06-Oct-20 12:52 45.586692 -122.578062 277 21ft 12kts
06-Oct-20 12:53 45.586526 -122.581614 200 21ft 5kts
06-Oct-20 12:54 45.586326 -122.581406 28 21ft 0kts
06-Oct-20 12:55 45.586326 -122.581406 28 21ft 0kts

Navigation Log

Ident Type
Flight plan parsing failed, navigation log unavailable